createdAt,value
2022-12-08T00:00:00.034Z,20.77
2022-12-08T00:01:12.964Z,18.38
2022-12-08T00:02:24.650Z,20.27
2022-12-08T00:03:36.806Z,21.08
2022-12-08T00:05:07.159Z,20.25
2022-12-08T00:06:50.312Z,20.33
2022-12-08T00:08:20.260Z,20.75
2022-12-08T00:09:39.161Z,20.20
2022-12-08T00:10:51.179Z,20.38
2022-12-08T00:12:05.835Z,21.17
2022-12-08T00:13:17.332Z,20.77
2022-12-08T00:14:30.420Z,18.35
2022-12-08T00:15:41.846Z,18.27
2022-12-08T00:16:54.416Z,19.63
2022-12-08T00:18:06.176Z,20.08
2022-12-08T00:19:17.621Z,19.02
2022-12-08T00:20:29.135Z,21.10
2022-12-08T00:21:40.655Z,21.08
2022-12-08T00:22:52.230Z,20.45
2022-12-08T00:24:03.776Z,21.00
2022-12-08T00:25:15.237Z,21.83
2022-12-08T00:26:26.679Z,20.13
2022-12-08T00:27:38.089Z,22.45
2022-12-08T00:28:49.593Z,19.73
2022-12-08T00:30:01.036Z,19.50
2022-12-08T00:31:12.762Z,20.77
2022-12-08T00:32:24.250Z,21.60
2022-12-08T00:33:35.761Z,21.83
2022-12-08T00:34:47.227Z,18.65
2022-12-08T00:35:58.711Z,18.77
2022-12-08T00:37:10.189Z,19.77
2022-12-08T00:38:21.651Z,19.05
2022-12-08T00:39:33.098Z,16.65
2022-12-08T00:40:45.665Z,19.48
2022-12-08T00:42:12.122Z,18.17
2022-12-08T00:43:23.627Z,18.65
2022-12-08T00:44:35.065Z,17.73
2022-12-08T00:45:46.621Z,17.85
2022-12-08T00:46:58.383Z,18.25
2022-12-08T00:48:09.908Z,16.30
2022-12-08T00:49:21.588Z,17.70
2022-12-08T00:50:33.320Z,17.73
2022-12-08T00:51:44.951Z,16.17
2022-12-08T00:52:56.389Z,18.13
2022-12-08T00:54:07.853Z,16.30
2022-12-08T00:55:19.336Z,13.95
2022-12-08T00:56:30.978Z,14.35
2022-12-08T00:57:42.428Z,15.02
2022-12-08T00:58:53.865Z,15.52
2022-12-08T01:00:06.120Z,15.13
2022-12-08T01:01:18.022Z,15.85
2022-12-08T01:02:29.604Z,17.27
2022-12-08T01:03:42.031Z,18.38
2022-12-08T01:04:53.535Z,19.60
2022-12-08T01:06:05.685Z,20.02
2022-12-08T01:07:17.364Z,19.17
2022-12-08T01:08:28.883Z,21.02
2022-12-08T01:09:40.449Z,20.90
2022-12-08T01:10:52.006Z,19.10
2022-12-08T01:12:03.537Z,21.67
2022-12-08T01:13:14.998Z,18.38
2022-12-08T01:14:26.682Z,17.10
2022-12-08T01:15:38.121Z,18.10
2022-12-08T01:16:49.689Z,17.98
2022-12-08T01:18:01.194Z,16.23
2022-12-08T01:19:13.991Z,19.25
2022-12-08T01:20:25.401Z,17.23
2022-12-08T01:21:36.820Z,18.55
2022-12-08T01:22:48.422Z,18.15
2022-12-08T01:24:00.547Z,16.58
2022-12-08T01:25:12.123Z,18.73
2022-12-08T01:26:23.724Z,19.15
2022-12-08T01:27:35.156Z,19.75
2022-12-08T01:28:46.927Z,19.25
2022-12-08T01:29:58.408Z,19.17
2022-12-08T01:31:13.988Z,18.52
2022-12-08T01:32:25.505Z,18.75
2022-12-08T01:33:36.952Z,19.27
2022-12-08T01:34:48.368Z,19.45
2022-12-08T01:36:02.789Z,18.80
2022-12-08T01:37:14.380Z,17.35
2022-12-08T01:38:25.863Z,20.60
2022-12-08T01:39:37.311Z,17.83
2022-12-08T01:40:49.093Z,18.55
2022-12-08T01:42:00.533Z,18.25
2022-12-08T01:43:19.207Z,18.42
2022-12-08T01:44:30.635Z,17.30
2022-12-08T01:45:43.100Z,15.43
2022-12-08T01:46:55.052Z,16.60
2022-12-08T01:48:11.142Z,15.60
2022-12-08T01:49:28.463Z,16.85
2022-12-08T01:50:41.581Z,16.55
2022-12-08T01:51:53.900Z,15.95
2022-12-08T01:53:09.286Z,15.82
2022-12-08T01:54:22.001Z,15.90
2022-12-08T01:55:39.204Z,17.00
2022-12-08T01:56:56.785Z,16.95
2022-12-08T01:58:19.527Z,15.48
2022-12-08T01:59:33.045Z,17.80
2022-12-08T02:00:44.502Z,17.58
2022-12-08T02:01:56.775Z,16.13
2022-12-08T02:03:11.921Z,14.60
2022-12-08T02:04:23.434Z,15.77
2022-12-08T02:05:36.790Z,15.77
2022-12-08T02:06:49.292Z,18.10
2022-12-08T02:08:01.837Z,14.38
2022-12-08T02:09:14.430Z,15.85
2022-12-08T02:10:28.126Z,14.55
2022-12-08T02:11:39.596Z,15.60
2022-12-08T02:12:53.996Z,15.27
2022-12-08T02:14:08.323Z,15.25
2022-12-08T02:15:20.407Z,15.35
2022-12-08T02:16:50.340Z,13.93
2022-12-08T02:18:20.679Z,15.20
2022-12-08T02:19:50.653Z,14.55
2022-12-08T02:21:24.908Z,16.00
2022-12-08T02:22:42.969Z,14.82
2022-12-08T02:24:08.234Z,14.38
2022-12-08T02:25:22.331Z,14.43
2022-12-08T02:26:43.050Z,14.30
2022-12-08T02:27:54.481Z,15.02
2022-12-08T02:29:05.909Z,15.07
2022-12-08T02:30:22.888Z,15.07
2022-12-08T02:31:49.380Z,13.80
2022-12-08T02:33:12.858Z,14.02
2022-12-08T02:34:50.585Z,14.90
2022-12-08T02:36:02.085Z,15.55
2022-12-08T02:37:16.301Z,14.85
2022-12-08T02:38:32.008Z,14.90
2022-12-08T02:39:43.426Z,15.07
2022-12-08T02:41:01.101Z,16.00
2022-12-08T02:42:19.396Z,15.35
2022-12-08T02:43:54.723Z,14.77
2022-12-08T02:45:09.177Z,14.27
2022-12-08T02:46:35.936Z,15.73
2022-12-08T02:47:47.932Z,13.80
2022-12-08T02:48:59.792Z,15.75
2022-12-08T02:50:12.144Z,15.05
2022-12-08T02:51:23.873Z,15.70
2022-12-08T02:52:39.669Z,13.20
2022-12-08T02:53:51.205Z,13.52
2022-12-08T02:55:05.460Z,16.15
2022-12-08T02:56:37.155Z,15.48
2022-12-08T02:57:51.629Z,17.05
2022-12-08T02:59:03.068Z,15.00
2022-12-08T03:00:16.728Z,14.23
2022-12-08T03:01:34.452Z,14.25
2022-12-08T03:02:45.956Z,17.15
2022-12-08T03:04:08.456Z,18.02
2022-12-08T03:05:22.166Z,17.30
2022-12-08T03:06:42.633Z,17.05
2022-12-08T03:08:00.671Z,17.98
2022-12-08T03:09:14.886Z,18.88
2022-12-08T03:10:34.192Z,15.82
2022-12-08T03:11:45.674Z,17.00
2022-12-08T03:13:17.436Z,16.10
2022-12-08T03:14:29.537Z,17.30
2022-12-08T03:15:41.879Z,17.65
2022-12-08T03:16:55.542Z,17.15
2022-12-08T03:18:08.635Z,16.70
2022-12-08T03:19:22.468Z,14.73
2022-12-08T03:20:34.536Z,15.52
2022-12-08T03:21:48.851Z,14.23
2022-12-08T03:23:01.565Z,14.60
2022-12-08T03:24:13.193Z,14.45
2022-12-08T03:25:26.024Z,13.98
2022-12-08T03:26:48.836Z,14.05
2022-12-08T03:28:00.480Z,16.48
2022-12-08T03:29:12.553Z,14.00
2022-12-08T03:30:24.051Z,15.00
2022-12-08T03:31:39.059Z,14.10
2022-12-08T03:33:01.827Z,15.90
2022-12-08T03:34:14.151Z,14.23
2022-12-08T03:35:29.971Z,13.60
2022-12-08T03:36:41.551Z,14.40
2022-12-08T03:38:01.436Z,14.20
2022-12-08T03:39:12.926Z,13.20
2022-12-08T03:40:24.522Z,13.20
2022-12-08T03:41:36.017Z,14.13
2022-12-08T03:42:47.570Z,14.80
2022-12-08T03:43:59.611Z,14.20
2022-12-08T03:45:11.526Z,13.20
2022-12-08T03:47:34.513Z,12.70
2022-12-08T03:48:46.022Z,13.88
2022-12-08T03:49:57.462Z,11.10
2022-12-08T03:51:09.051Z,12.10
2022-12-08T03:52:20.504Z,14.43
2022-12-08T03:53:31.959Z,16.08
2022-12-08T03:54:43.404Z,16.20
2022-12-08T03:55:54.928Z,15.70
2022-12-08T03:57:06.543Z,13.32
2022-12-08T03:58:17.973Z,11.80
2022-12-08T03:59:29.447Z,13.50
2022-12-08T04:00:40.988Z,13.90
2022-12-08T04:01:52.519Z,13.35
2022-12-08T04:03:04.702Z,11.77
2022-12-08T04:04:16.289Z,13.32
2022-12-08T04:05:27.740Z,12.82
2022-12-08T04:06:39.149Z,12.98
2022-12-08T04:07:50.646Z,13.20
2022-12-08T04:09:02.202Z,13.18
2022-12-08T04:10:14.195Z,11.85
2022-12-08T04:11:25.643Z,12.63
2022-12-08T04:12:37.085Z,13.15
2022-12-08T04:13:48.647Z,12.30
2022-12-08T04:15:00.172Z,12.88
2022-12-08T04:16:15.913Z,11.98
2022-12-08T04:17:27.431Z,11.57
2022-12-08T04:18:38.893Z,11.63
2022-12-08T04:19:50.358Z,13.23
2022-12-08T04:21:01.893Z,14.52
2022-12-08T04:22:13.356Z,22.92
2022-12-08T04:23:24.801Z,15.35
2022-12-08T04:24:36.233Z,15.07
2022-12-08T04:25:47.653Z,16.83
2022-12-08T04:26:59.076Z,16.25
2022-12-08T04:28:10.655Z,16.92
2022-12-08T04:29:22.087Z,16.20
2022-12-08T04:30:33.589Z,18.08
2022-12-08T04:31:45.188Z,17.10
2022-12-08T04:32:56.702Z,19.75
2022-12-08T04:34:08.971Z,19.83
2022-12-08T04:35:20.406Z,17.95
2022-12-08T04:36:32.108Z,16.00
2022-12-08T04:37:44.401Z,13.30
2022-12-08T04:38:55.831Z,10.63
2022-12-08T04:40:07.742Z,11.30
2022-12-08T04:41:19.273Z,10.98
2022-12-08T04:42:30.748Z,10.63
2022-12-08T04:43:44.341Z,10.45
2022-12-08T04:44:55.756Z,10.68
2022-12-08T04:46:08.336Z,10.50
2022-12-08T04:47:20.993Z,10.35
2022-12-08T04:48:32.454Z,10.77
2022-12-08T04:49:43.909Z,9.82
2022-12-08T04:50:55.369Z,9.55
2022-12-08T04:52:06.846Z,10.88
2022-12-08T04:53:19.734Z,10.82
2022-12-08T04:54:31.268Z,10.30
2022-12-08T04:55:44.211Z,10.75
2022-12-08T04:56:55.680Z,12.20
2022-12-08T04:58:07.299Z,13.63
2022-12-08T04:59:18.784Z,14.05
2022-12-08T05:00:30.229Z,11.40
2022-12-08T05:01:41.806Z,13.50
2022-12-08T05:02:53.431Z,12.80
2022-12-08T05:04:04.938Z,12.57
2022-12-08T05:05:16.492Z,12.45
2022-12-08T05:06:27.912Z,13.52
2022-12-08T05:07:39.461Z,12.60
2022-12-08T05:08:51.026Z,13.88
2022-12-08T05:10:03.292Z,12.90
2022-12-08T05:11:14.951Z,11.73
2022-12-08T05:12:26.418Z,12.35
2022-12-08T05:13:37.947Z,11.63
2022-12-08T05:14:49.440Z,12.32
2022-12-08T05:16:11.744Z,11.70
2022-12-08T05:17:23.275Z,11.10
2022-12-08T05:18:35.159Z,10.27
2022-12-08T05:19:46.741Z,11.40
2022-12-08T05:20:58.396Z,10.23
2022-12-08T05:22:10.054Z,10.75
2022-12-08T05:23:21.555Z,9.68
2022-12-08T05:24:33.011Z,9.57
2022-12-08T05:25:44.487Z,10.02
2022-12-08T05:26:55.993Z,9.32
2022-12-08T05:28:39.605Z,10.02
2022-12-08T05:29:38.913Z,9.15
2022-12-08T05:30:50.427Z,10.52
2022-12-08T05:32:01.935Z,10.52
2022-12-08T05:33:13.410Z,10.25
2022-12-08T05:34:24.922Z,10.93
2022-12-08T05:35:36.393Z,11.30
2022-12-08T05:36:48.210Z,13.02
2022-12-08T05:37:59.616Z,13.45
2022-12-08T05:39:14.797Z,12.13
2022-12-08T05:40:26.257Z,13.18
2022-12-08T05:41:37.770Z,11.95
2022-12-08T05:42:49.229Z,12.30
2022-12-08T05:44:00.653Z,13.25
2022-12-08T05:45:12.334Z,13.18
2022-12-08T05:46:23.866Z,14.13
2022-12-08T05:47:36.313Z,12.60
2022-12-08T05:48:47.858Z,12.60
2022-12-08T05:49:59.299Z,14.75
2022-12-08T05:51:17.136Z,23.05
2022-12-08T05:52:28.626Z,26.50
2022-12-08T05:53:40.025Z,24.13
2022-12-08T05:54:51.467Z,21.08
2022-12-08T05:56:02.980Z,17.38
2022-12-08T05:57:14.409Z,18.02
2022-12-08T05:58:25.868Z,16.13
2022-12-08T05:59:37.780Z,15.45
2022-12-08T06:00:49.713Z,15.82
2022-12-08T06:02:01.291Z,18.55
2022-12-08T06:03:13.450Z,17.42
2022-12-08T06:04:24.991Z,17.45
2022-12-08T06:05:36.614Z,14.85
2022-12-08T06:06:48.103Z,16.92
2022-12-08T06:07:59.570Z,18.33
2022-12-08T06:09:12.428Z,15.80
2022-12-08T06:10:23.925Z,16.00
2022-12-08T06:11:35.426Z,17.90
2022-12-08T06:12:46.896Z,17.17
2022-12-08T06:13:58.975Z,17.23
2022-12-08T06:15:10.545Z,18.00
2022-12-08T06:16:22.350Z,17.95
2022-12-08T06:17:33.930Z,17.48
2022-12-08T06:18:45.816Z,15.95
2022-12-08T06:19:57.358Z,16.13
2022-12-08T06:21:09.831Z,17.48
2022-12-08T06:22:21.312Z,15.50
2022-12-08T06:23:32.791Z,18.60
2022-12-08T06:24:44.202Z,18.17
2022-12-08T06:25:55.620Z,18.02
2022-12-08T06:27:07.066Z,19.15
2022-12-08T06:28:18.957Z,17.67
2022-12-08T06:29:30.513Z,23.65
2022-12-08T06:30:41.960Z,18.65
2022-12-08T06:31:53.488Z,16.17
2022-12-08T06:33:04.942Z,18.10
2022-12-08T06:34:16.368Z,19.45
2022-12-08T06:35:27.907Z,16.65
2022-12-08T06:36:39.512Z,16.40
2022-12-08T06:37:51.807Z,18.73
2022-12-08T06:39:03.455Z,16.58
2022-12-08T06:40:14.964Z,19.20
2022-12-08T06:41:26.536Z,17.90
2022-12-08T06:42:44.067Z,15.20
2022-12-08T06:43:56.285Z,15.30
2022-12-08T06:45:08.037Z,17.27
2022-12-08T06:46:19.932Z,13.30
2022-12-08T06:47:31.452Z,15.50
2022-12-08T06:48:43.104Z,23.80
2022-12-08T06:49:54.535Z,26.60
2022-12-08T06:51:13.462Z,27.13
2022-12-08T06:52:24.958Z,15.27
2022-12-08T06:53:36.873Z,18.88
2022-12-08T06:54:48.330Z,12.48
2022-12-08T06:56:00.128Z,13.23
2022-12-08T06:57:11.711Z,12.80
2022-12-08T06:58:23.169Z,14.98
2022-12-08T06:59:34.695Z,18.42
2022-12-08T07:00:46.281Z,17.92
2022-12-08T07:01:57.845Z,13.40
2022-12-08T07:03:09.977Z,16.17
2022-12-08T07:04:21.476Z,12.43
2022-12-08T07:05:33.005Z,15.82
2022-12-08T07:06:44.428Z,17.65
2022-12-08T07:07:56.006Z,19.40
2022-12-08T07:09:07.578Z,18.20
2022-12-08T07:10:19.102Z,17.10
2022-12-08T07:11:30.542Z,15.20
2022-12-08T07:12:41.982Z,15.13
2022-12-08T07:13:55.366Z,18.33
2022-12-08T07:15:07.200Z,20.17
2022-12-08T07:16:18.802Z,21.42
2022-12-08T07:17:30.392Z,21.67
2022-12-08T07:18:43.060Z,19.20
2022-12-08T07:19:54.561Z,18.15
2022-12-08T07:21:07.037Z,13.70
2022-12-08T07:22:18.479Z,15.23
2022-12-08T07:23:29.925Z,14.43
2022-12-08T07:24:41.386Z,13.80
2022-12-08T07:25:52.829Z,13.85
2022-12-08T07:27:04.318Z,13.60
2022-12-08T07:28:15.821Z,13.05
2022-12-08T07:29:27.272Z,15.93
2022-12-08T07:30:39.453Z,18.48
2022-12-08T07:31:51.149Z,15.40
2022-12-08T07:33:03.105Z,13.55
2022-12-08T07:34:14.547Z,13.77
2022-12-08T07:35:26.007Z,13.68
2022-12-08T07:36:37.511Z,13.73
2022-12-08T07:37:48.972Z,15.18
2022-12-08T07:39:00.463Z,12.45
2022-12-08T07:40:12.440Z,13.50
2022-12-08T07:41:25.063Z,12.98
2022-12-08T07:42:36.656Z,13.40
2022-12-08T07:43:48.413Z,14.57
2022-12-08T07:45:00.683Z,15.70
2022-12-08T07:46:13.437Z,17.02
2022-12-08T07:47:25.034Z,17.95
2022-12-08T07:48:36.525Z,16.58
2022-12-08T07:49:48.021Z,15.32
2022-12-08T07:51:03.385Z,16.67
2022-12-08T07:52:14.828Z,15.50
2022-12-08T07:53:26.267Z,14.65
2022-12-08T07:54:37.701Z,13.32
2022-12-08T07:55:49.154Z,11.23
2022-12-08T07:57:00.969Z,12.80
2022-12-08T07:58:12.598Z,11.90
2022-12-08T07:59:24.160Z,11.90
2022-12-08T08:00:35.847Z,13.10
2022-12-08T08:02:06.321Z,11.73
2022-12-08T08:03:20.976Z,13.95
2022-12-08T08:04:32.499Z,11.70
2022-12-08T08:05:44.400Z,13.00
2022-12-08T08:06:55.927Z,12.15
2022-12-08T08:08:07.390Z,11.85
2022-12-08T08:09:18.926Z,13.90
2022-12-08T08:10:30.431Z,12.95
2022-12-08T08:11:41.959Z,11.63
2022-12-08T08:12:53.418Z,10.75
2022-12-08T08:14:04.925Z,11.82
2022-12-08T08:15:17.475Z,10.00
2022-12-08T08:16:33.468Z,11.55
2022-12-08T08:17:54.282Z,11.77
2022-12-08T08:19:07.041Z,11.13
2022-12-08T08:23:05.550Z,10.10
2022-12-08T08:24:17.727Z,7.78
2022-12-08T08:25:29.203Z,9.07
2022-12-08T08:26:40.656Z,7.43
2022-12-08T08:27:52.142Z,9.40
2022-12-08T08:29:03.732Z,8.75
2022-12-08T08:30:20.268Z,7.57
2022-12-08T08:31:32.632Z,7.18
2022-12-08T08:32:44.249Z,7.80
2022-12-08T08:33:56.268Z,8.52
2022-12-08T08:35:08.904Z,6.55
2022-12-08T08:36:22.131Z,7.05
2022-12-08T08:37:33.664Z,6.38
2022-12-08T08:38:45.208Z,7.13
2022-12-08T08:39:56.780Z,7.63
2022-12-08T08:41:09.803Z,8.10
2022-12-08T08:42:21.259Z,9.93
2022-12-08T08:43:38.134Z,8.02
2022-12-08T08:44:50.217Z,6.65
2022-12-08T08:46:02.449Z,7.35
2022-12-08T08:47:13.897Z,8.70
2022-12-08T08:48:26.380Z,6.32
2022-12-08T08:49:37.867Z,6.45
2022-12-08T08:50:49.455Z,7.95
2022-12-08T08:52:00.918Z,8.27
2022-12-08T08:53:12.355Z,6.72
2022-12-08T08:54:23.927Z,6.75
2022-12-08T08:55:35.337Z,5.60
2022-12-08T08:56:48.260Z,5.05
2022-12-08T08:57:59.778Z,5.35
2022-12-08T08:59:11.381Z,5.32
2022-12-08T09:00:22.838Z,5.45
2022-12-08T09:01:34.355Z,6.07
2022-12-08T09:02:45.877Z,6.50
2022-12-08T09:03:57.742Z,5.00
2022-12-08T09:05:09.432Z,6.28
2022-12-08T09:06:21.495Z,6.20
2022-12-08T09:07:33.108Z,5.60
2022-12-08T09:08:45.463Z,5.43
2022-12-08T09:10:01.352Z,7.50
2022-12-08T09:11:13.468Z,6.45
2022-12-08T09:12:24.893Z,6.60
2022-12-08T09:13:36.617Z,5.93
2022-12-08T09:14:48.115Z,5.55
2022-12-08T09:16:02.941Z,6.60
2022-12-08T09:17:14.795Z,5.00
2022-12-08T09:18:26.352Z,5.95
2022-12-08T09:19:37.807Z,6.30
2022-12-08T09:20:49.370Z,5.95
2022-12-08T09:22:00.843Z,5.97
2022-12-08T09:23:12.295Z,6.07
2022-12-08T09:24:23.733Z,4.88
2022-12-08T09:25:35.175Z,6.03
2022-12-08T09:26:47.262Z,6.50
2022-12-08T09:27:58.820Z,7.00
2022-12-08T09:29:11.045Z,6.55
2022-12-08T09:30:22.537Z,6.15
2022-12-08T09:31:34.103Z,6.03
2022-12-08T09:32:45.652Z,5.55
2022-12-08T09:33:57.126Z,5.38
2022-12-08T09:35:08.649Z,5.55
2022-12-08T09:36:20.544Z,5.93
2022-12-08T09:37:32.153Z,5.90
2022-12-08T09:38:43.661Z,5.70
2022-12-08T09:39:55.184Z,5.93
2022-12-08T09:41:17.966Z,6.43
2022-12-08T09:42:38.767Z,4.55
2022-12-08T09:44:09.122Z,4.57
2022-12-08T09:45:22.660Z,4.60
2022-12-08T09:46:34.542Z,4.18
2022-12-08T09:47:48.778Z,5.20
2022-12-08T09:49:00.964Z,5.65
2022-12-08T09:50:27.676Z,5.70
2022-12-08T09:51:40.522Z,5.68
2022-12-08T09:53:12.330Z,5.03
2022-12-08T09:54:36.139Z,29.77
2022-12-08T09:55:59.033Z,5.20
2022-12-08T09:57:13.470Z,5.15
2022-12-08T09:58:32.917Z,5.55
2022-12-08T09:59:47.819Z,9.65
2022-12-08T10:00:59.605Z,5.90
2022-12-08T10:02:37.175Z,7.95
2022-12-08T10:03:49.232Z,11.50
2022-12-08T10:05:00.829Z,14.80
2022-12-08T10:06:18.788Z,34.90
2022-12-08T10:07:34.912Z,53.30
2022-12-08T10:09:12.828Z,13.55
2022-12-08T10:10:27.839Z,18.63
2022-12-08T10:11:49.310Z,13.88
2022-12-08T10:13:20.890Z,8.30
2022-12-08T10:14:40.125Z,11.90
2022-12-08T10:16:12.916Z,8.48
2022-12-08T10:17:38.187Z,17.25
2022-12-08T10:18:55.378Z,11.65
2022-12-08T10:20:12.297Z,21.40
2022-12-08T10:21:27.133Z,8.45
2022-12-08T10:22:44.281Z,8.80
2022-12-08T10:23:59.878Z,18.20
2022-12-08T10:25:19.365Z,50.17
2022-12-08T10:26:32.809Z,11.60
2022-12-08T10:27:44.476Z,9.43
2022-12-08T10:29:01.311Z,9.27
2022-12-08T10:30:13.457Z,7.75
2022-12-08T10:31:25.324Z,11.95
2022-12-08T10:32:36.854Z,11.38
2022-12-08T10:33:49.519Z,11.90
2022-12-08T10:35:01.328Z,5.75
2022-12-08T10:36:13.019Z,5.68
2022-12-08T10:37:24.540Z,6.80
2022-12-08T10:38:37.284Z,5.40
2022-12-08T10:39:58.509Z,6.63
2022-12-08T10:41:09.977Z,4.97
2022-12-08T10:42:22.442Z,5.15
2022-12-08T10:43:34.465Z,4.97
2022-12-08T10:45:16.048Z,5.10
2022-12-08T10:46:29.078Z,4.22
2022-12-08T10:47:45.029Z,5.13
2022-12-08T10:48:57.113Z,4.95
2022-12-08T10:50:18.910Z,4.43
2022-12-08T10:51:33.496Z,4.28
2022-12-08T10:52:45.482Z,4.38
2022-12-08T10:53:57.275Z,5.65
2022-12-08T10:55:16.372Z,4.90
2022-12-08T10:56:29.187Z,4.20
2022-12-08T10:57:40.787Z,3.45
2022-12-08T10:59:05.211Z,3.67
2022-12-08T11:00:27.913Z,4.20
2022-12-08T11:01:40.444Z,5.03
2022-12-08T11:03:03.053Z,4.90
2022-12-08T11:04:17.521Z,4.28
2022-12-08T11:05:33.517Z,5.28
2022-12-08T11:06:45.708Z,5.60
2022-12-08T11:07:57.380Z,5.35
2022-12-08T11:09:18.544Z,5.22
2022-12-08T11:10:37.451Z,5.68
2022-12-08T11:11:50.013Z,5.80
2022-12-08T11:13:02.701Z,9.20
2022-12-08T11:14:19.835Z,7.70
2022-12-08T11:15:33.423Z,7.60
2022-12-08T11:16:45.334Z,8.20
2022-12-08T11:18:00.913Z,7.45
2022-12-08T11:19:16.562Z,6.70
2022-12-08T11:20:37.899Z,8.02
2022-12-08T11:21:49.426Z,8.60
2022-12-08T11:23:00.930Z,6.38
2022-12-08T11:24:15.423Z,6.47
2022-12-08T11:25:27.667Z,6.63
2022-12-08T11:26:39.196Z,6.82
2022-12-08T11:27:52.869Z,7.20
2022-12-08T11:29:04.465Z,6.35
2022-12-08T11:30:27.340Z,10.90
2022-12-08T11:31:40.963Z,11.35
2022-12-08T11:33:08.475Z,10.80
2022-12-08T11:34:23.621Z,11.43
2022-12-08T11:35:37.578Z,9.55
2022-12-08T11:36:49.790Z,13.38
2022-12-08T11:38:21.424Z,12.75
2022-12-08T11:39:35.417Z,13.38
2022-12-08T11:40:48.316Z,8.95
2022-12-08T11:42:01.711Z,9.27
2022-12-08T11:43:22.737Z,9.70
2022-12-08T11:44:37.819Z,10.07
2022-12-08T11:46:02.576Z,10.52
2022-12-08T11:47:17.318Z,9.20
2022-12-08T11:48:47.602Z,8.50
2022-12-08T11:50:03.945Z,10.10
2022-12-08T11:51:29.924Z,9.15
2022-12-08T11:52:46.008Z,9.55
2022-12-08T11:53:57.689Z,9.93
2022-12-08T11:55:24.460Z,7.65
2022-12-08T11:56:44.644Z,7.78
2022-12-08T11:57:57.306Z,6.25
2022-12-08T11:59:11.571Z,6.53
2022-12-08T12:00:23.440Z,6.72
2022-12-08T12:01:40.912Z,6.95
2022-12-08T12:03:01.858Z,5.82
2022-12-08T12:04:13.967Z,5.47
2022-12-08T12:07:19.474Z,6.40
2022-12-08T12:08:44.020Z,5.53
2022-12-08T12:10:08.227Z,5.20
2022-12-08T12:11:54.068Z,4.53
2022-12-08T12:13:24.276Z,5.05
2022-12-08T12:14:54.449Z,5.85
2022-12-08T12:16:18.278Z,4.78
2022-12-08T12:17:39.826Z,6.13
2022-12-08T12:18:56.676Z,4.68
2022-12-08T12:20:18.432Z,5.63
2022-12-08T12:21:34.786Z,4.72
2022-12-08T12:22:49.601Z,4.85
2022-12-08T12:24:05.241Z,4.43
2022-12-08T12:25:21.154Z,5.45
2022-12-08T12:26:37.372Z,4.82
2022-12-08T12:27:50.032Z,4.60
2022-12-08T12:29:06.077Z,4.95
2022-12-08T12:30:22.253Z,4.35
2022-12-08T12:31:38.476Z,4.70
2022-12-08T12:33:00.719Z,4.75
2022-12-08T12:34:16.804Z,4.80
2022-12-08T12:35:41.521Z,4.28
2022-12-08T12:36:52.994Z,5.05
2022-12-08T12:38:29.041Z,4.45
2022-12-08T12:39:46.603Z,4.18
2022-12-08T12:41:02.550Z,4.60
2022-12-08T12:42:32.897Z,3.80
2022-12-08T12:44:04.303Z,4.00
2022-12-08T12:45:20.015Z,3.88
2022-12-08T12:46:42.642Z,3.53
2022-12-08T12:47:57.318Z,3.72
2022-12-08T12:49:27.479Z,3.72
2022-12-08T12:50:43.625Z,3.63
2022-12-08T12:51:55.526Z,4.05
2022-12-08T12:53:13.637Z,3.00
2022-12-08T12:54:26.589Z,3.78
2022-12-08T12:55:52.019Z,3.95
2022-12-08T12:57:09.685Z,3.15
2022-12-08T12:58:33.492Z,3.75
2022-12-08T12:59:55.280Z,4.50
2022-12-08T13:01:10.254Z,5.43
2022-12-08T13:02:23.919Z,3.47
2022-12-08T13:03:35.676Z,3.65
2022-12-08T13:04:53.813Z,4.07
2022-12-08T13:06:09.947Z,3.45
2022-12-08T13:07:26.088Z,4.10
2022-12-08T13:08:40.005Z,4.53
2022-12-08T13:10:02.793Z,4.57
2022-12-08T13:11:14.483Z,5.70
2022-12-08T13:12:28.246Z,5.40
2022-12-08T13:13:55.942Z,5.78
2022-12-08T13:15:15.644Z,6.00
2022-12-08T13:16:31.161Z,6.20
2022-12-08T13:17:44.350Z,7.80
2022-12-08T13:19:02.381Z,6.80
2022-12-08T13:20:24.124Z,7.90
2022-12-08T13:21:39.451Z,8.35
2022-12-08T13:22:51.430Z,6.38
2022-12-08T13:24:19.796Z,10.63
2022-12-08T13:25:40.370Z,9.02
2022-12-08T13:27:04.028Z,11.05
2022-12-08T13:28:15.436Z,10.73
2022-12-08T13:29:26.889Z,11.90
2022-12-08T13:30:49.108Z,8.38
2022-12-08T13:32:02.122Z,11.07
2022-12-08T13:33:40.259Z,10.05
2022-12-08T13:34:53.466Z,12.50
2022-12-08T13:36:21.333Z,10.75
2022-12-08T13:37:50.773Z,13.00
2022-12-08T13:39:06.419Z,9.05
2022-12-08T13:40:24.209Z,16.05
2022-12-08T13:41:40.130Z,16.30
2022-12-08T13:43:02.028Z,16.70
2022-12-08T13:47:34.706Z,12.52
2022-12-08T13:53:49.075Z,15.82
2022-12-08T13:54:52.346Z,11.02
2022-12-08T13:57:35.249Z,9.75
2022-12-08T13:58:47.055Z,9.68
2022-12-08T14:00:14.048Z,10.25
2022-12-08T14:01:25.871Z,11.80
2022-12-08T14:02:45.362Z,10.57
2022-12-08T14:04:31.126Z,8.75
2022-12-08T14:06:10.490Z,7.30
2022-12-08T14:07:11.806Z,9.48
2022-12-08T14:08:59.298Z,9.57
2022-12-08T14:10:08.335Z,10.10
2022-12-08T14:11:35.088Z,7.63
2022-12-08T14:12:48.090Z,10.25
2022-12-08T14:14:03.496Z,9.48
2022-12-08T14:15:15.858Z,8.10
2022-12-08T14:16:37.577Z,8.10
2022-12-08T14:17:52.719Z,8.23
2022-12-08T14:19:05.346Z,7.45
2022-12-08T14:20:25.904Z,8.55
2022-12-08T14:21:37.380Z,9.15
2022-12-08T14:22:50.227Z,7.97
2022-12-08T14:24:02.746Z,8.82
2022-12-08T14:25:15.249Z,7.75
2022-12-08T14:26:26.705Z,8.23
2022-12-08T14:27:38.668Z,8.88
2022-12-08T14:28:50.202Z,8.52
2022-12-08T14:30:02.433Z,8.57
2022-12-08T14:31:14.861Z,8.15
2022-12-08T14:32:31.241Z,11.43
2022-12-08T14:33:43.211Z,12.48
2022-12-08T14:34:57.316Z,14.05
2022-12-08T14:36:09.438Z,15.82
2022-12-08T14:37:21.897Z,15.82
2022-12-08T14:38:33.495Z,14.07
2022-12-08T14:39:45.159Z,13.63
2022-12-08T14:40:59.504Z,12.52
2022-12-08T14:42:24.106Z,14.35
2022-12-08T14:43:35.768Z,13.98
2022-12-08T14:44:47.348Z,16.75
2022-12-08T14:46:03.482Z,17.92
2022-12-08T14:47:19.353Z,18.95
2022-12-08T14:48:30.817Z,29.05
2022-12-08T14:49:44.558Z,28.17
2022-12-08T14:50:56.182Z,18.70
2022-12-08T14:52:11.759Z,17.40
2022-12-08T14:53:24.137Z,14.68
2022-12-08T14:54:35.820Z,17.45
2022-12-08T14:55:48.019Z,18.05
2022-12-08T14:57:01.022Z,11.57
2022-12-08T14:58:17.953Z,13.70
2022-12-08T14:59:34.269Z,17.08
2022-12-08T15:00:47.224Z,17.63
2022-12-08T15:02:19.448Z,20.35
2022-12-08T15:03:31.701Z,17.90
2022-12-08T15:04:45.181Z,21.35
2022-12-08T15:05:57.781Z,19.75
2022-12-08T15:07:16.578Z,19.02
2022-12-08T15:08:28.386Z,17.80
2022-12-08T15:09:41.343Z,16.75
2022-12-08T15:11:11.616Z,18.48
2022-12-08T15:12:27.005Z,18.10
2022-12-08T15:13:46.431Z,20.20
2022-12-08T15:15:09.920Z,20.20
2022-12-08T15:16:24.312Z,18.63
2022-12-08T15:17:44.785Z,16.15
2022-12-08T15:19:17.013Z,13.13
2022-12-08T15:20:49.094Z,14.07
2022-12-08T15:22:17.602Z,15.88
2022-12-08T15:23:31.302Z,13.57
2022-12-08T15:24:42.998Z,13.45
2022-12-08T15:25:55.205Z,13.95
2022-12-08T15:27:06.673Z,14.98
2022-12-08T15:28:19.799Z,14.63
2022-12-08T15:29:31.411Z,15.35
2022-12-08T15:30:43.010Z,19.50
2022-12-08T15:31:56.073Z,21.10
2022-12-08T15:33:07.700Z,17.40
2022-12-08T15:34:19.792Z,14.95
2022-12-08T15:35:33.695Z,12.07
2022-12-08T15:36:52.938Z,10.80
2022-12-08T15:38:05.552Z,11.65
2022-12-08T15:39:36.644Z,14.52
2022-12-08T15:40:48.628Z,14.32
2022-12-08T15:42:00.665Z,13.93
2022-12-08T15:43:12.374Z,11.95
2022-12-08T15:44:23.912Z,11.85
2022-12-08T15:45:35.468Z,12.73
2022-12-08T15:46:47.022Z,12.52
2022-12-08T15:47:58.590Z,12.05
2022-12-08T15:49:16.467Z,14.98
2022-12-08T15:50:28.094Z,12.82
2022-12-08T15:51:39.602Z,16.55
2022-12-08T15:52:51.185Z,17.10
2022-12-08T15:54:02.771Z,16.42
2022-12-08T15:55:23.261Z,12.95
2022-12-08T15:56:45.358Z,11.07
2022-12-08T15:59:38.956Z,7.85
2022-12-08T16:00:53.418Z,8.70
2022-12-08T16:02:05.623Z,8.15
2022-12-08T16:05:40.976Z,9.80
2022-12-08T16:08:07.778Z,7.10
2022-12-08T16:09:38.441Z,5.78
2022-12-08T16:11:40.906Z,5.53
2022-12-08T16:15:08.570Z,11.75
2022-12-08T16:15:55.161Z,13.52
2022-12-08T16:17:17.415Z,14.80
2022-12-08T16:18:31.625Z,13.30
2022-12-08T16:19:45.677Z,11.98
2022-12-08T16:21:31.481Z,11.55
2022-12-08T16:24:09.041Z,9.73
2022-12-08T16:25:22.468Z,8.07
2022-12-08T16:27:50.733Z,6.50
2022-12-08T16:28:29.292Z,19.65
2022-12-08T16:29:37.359Z,14.82
2022-12-08T16:30:48.830Z,22.20
2022-12-08T16:32:00.401Z,39.22
2022-12-08T16:33:12.701Z,33.22
2022-12-08T16:34:24.176Z,28.75
2022-12-08T16:35:35.717Z,23.58
2022-12-08T16:36:47.180Z,22.38